Time;durP1;ratioP1;P1;durP2;ratioP2;P2;SDS_P1;SDS_P2;PMS_P1;PMS_P2;Temp;Humidity;BMP_temperature;BMP_pressure;BME280_temperature;BME280_humidity;BME280_pressure;Samples;Min_cycle;Max_cycle;Signal;HPM_P1;HPM_P2
2023/12/18 00:01:12;;;;;;;133.53;36.10;;;-2.30;99.90;;;;;;4194166;28;20614;-59
2023/12/18 00:03:13;;;;;;;187.60;33.90;;;-2.30;99.90;;;;;;4193734;28;20289;-61
2023/12/18 00:05:14;;;;;;;197.30;37.70;;;-2.40;99.90;;;;;;4193997;28;20773;-61
2023/12/18 00:07:15;;;;;;;174.20;38.60;;;-2.40;99.90;;;;;;4194123;28;20713;-61
2023/12/18 00:09:17;;;;;;;161.67;37.10;;;-2.40;99.90;;;;;;4194493;28;20342;-62
2023/12/18 00:11:18;;;;;;;202.57;40.50;;;-2.40;99.90;;;;;;4194320;28;20672;-61
2023/12/18 00:13:19;;;;;;;162.83;37.90;;;-2.40;99.90;;;;;;4194423;28;20315;-62
2023/12/18 00:15:21;;;;;;;152.50;36.30;;;-2.40;99.90;;;;;;4192950;28;20595;-61
2023/12/18 00:17:22;;;;;;;208.70;41.00;;;-2.40;99.90;;;;;;4194899;28;20752;-62
2023/12/18 00:19:23;;;;;;;155.00;37.30;;;-2.40;99.90;;;;;;4175623;28;20376;-61
2023/12/18 00:21:24;;;;;;;170.90;38.40;;;-2.40;99.90;;;;;;4194685;28;20269;-62
2023/12/18 00:23:25;;;;;;;192.57;39.90;;;-2.40;99.90;;;;;;4193007;28;20739;-61
2023/12/18 00:25:26;;;;;;;253.43;39.83;;;-2.40;99.90;;;;;;4194136;28;20695;-60
2023/12/18 00:27:28;;;;;;;212.83;43.10;;;-2.50;99.90;;;;;;4194094;28;20265;-61
2023/12/18 00:29:29;;;;;;;249.90;43.50;;;-2.50;99.90;;;;;;4193782;28;20389;-62
2023/12/18 00:31:30;;;;;;;262.57;44.67;;;-2.50;99.90;;;;;;4193731;28;20716;-61
2023/12/18 00:33:31;;;;;;;193.47;42.23;;;-2.50;99.90;;;;;;4193627;28;20265;-61
2023/12/18 00:35:32;;;;;;;157.50;39.73;;;-2.50;99.90;;;;;;4194050;28;20335;-59
2023/12/18 00:37:33;;;;;;;208.03;42.50;;;-2.40;99.90;;;;;;4194076;28;20266;-60
2023/12/18 00:39:35;;;;;;;343.63;48.80;;;-2.40;99.90;;;;;;4193483;28;20246;-61
2023/12/18 00:41:36;;;;;;;145.43;36.30;;;-2.50;99.90;;;;;;4192919;28;20281;-62
2023/12/18 00:43:37;;;;;;;237.57;38.97;;;-2.50;99.90;;;;;;4193995;28;20307;-61
2023/12/18 00:45:38;;;;;;;201.83;40.13;;;-2.50;99.90;;;;;;4192524;28;20269;-60
2023/12/18 00:47:40;;;;;;;182.03;37.37;;;-2.60;99.90;;;;;;4175619;28;20266;-60
2023/12/18 00:49:41;;;;;;;145.93;36.50;;;-2.60;99.90;;;;;;4191980;28;20350;-60
2023/12/18 00:51:42;;;;;;;160.87;35.83;;;-2.60;99.90;;;;;;4193789;28;20319;-62
2023/12/18 00:53:43;;;;;;;157.80;33.70;;;-2.60;99.90;;;;;;4193272;28;20806;-61
2023/12/18 00:55:44;;;;;;;225.13;40.47;;;-2.60;99.90;;;;;;4193332;28;20274;-62
2023/12/18 00:57:46;;;;;;;284.00;47.00;;;-2.70;99.90;;;;;;4193020;28;20261;-61
2023/12/18 00:59:47;;;;;;;222.93;40.13;;;-2.70;99.90;;;;;;4193238;28;20257;-61
2023/12/18 01:01:48;;;;;;;379.13;48.57;;;-2.70;99.90;;;;;;4193094;28;20269;-61
2023/12/18 01:03:49;;;;;;;242.87;41.90;;;-2.70;99.90;;;;;;4193643;28;20311;-60
2023/12/18 01:05:50;;;;;;;216.07;42.50;;;-2.80;99.90;;;;;;4193247;28;20281;-61
2023/12/18 01:07:52;;;;;;;339.57;45.60;;;-2.80;99.90;;;;;;4174721;28;20282;-61
2023/12/18 01:09:58;;;;;;;243.33;38.73;;;-2.80;99.90;;;;;;4193134;28;20650;-61
2023/12/18 01:11:59;;;;;;;134.53;36.23;;;-2.80;99.90;;;;;;4192967;28;20258;-61
2023/12/18 01:14:00;;;;;;;183.90;37.10;;;-2.80;99.90;;;;;;4193309;28;20258;-62
2023/12/18 01:16:02;;;;;;;109.40;30.03;;;-2.80;99.90;;;;;;4192956;28;20312;-60
2023/12/18 01:18:03;;;;;;;188.50;34.23;;;-2.80;99.90;;;;;;4193712;28;20709;-61
2023/12/18 01:20:06;;;;;;;142.60;34.30;;;-2.80;99.90;;;;;;4192203;28;20307;-61
2023/12/18 01:22:08;;;;;;;192.07;37.53;;;-2.80;99.90;;;;;;4192758;28;20273;-62
2023/12/18 01:24:09;;;;;;;193.37;36.13;;;-2.80;99.90;;;;;;4192944;28;20307;-62
2023/12/18 01:26:10;;;;;;;309.03;44.97;;;-2.90;99.90;;;;;;4193821;28;20261;-62
2023/12/18 01:28:11;;;;;;;333.80;46.37;;;-2.90;99.90;;;;;;4192660;28;20246;-61
2023/12/18 01:30:13;;;;;;;266.80;43.70;;;-2.90;99.90;;;;;;4192875;28;20269;-59
2023/12/18 01:32:14;;;;;;;129.70;32.93;;;-2.90;99.90;;;;;;4192332;28;20258;-61
2023/12/18 01:34:15;;;;;;;371.03;51.20;;;-2.90;99.90;;;;;;4193520;28;20265;-62
2023/12/18 01:36:17;;;;;;;300.73;42.23;;;-2.90;99.90;;;;;;4193662;28;20331;-62
2023/12/18 01:38:18;;;;;;;203.30;37.03;;;-2.90;99.90;;;;;;4192973;28;20293;-61
2023/12/18 01:40:19;;;;;;;250.60;38.40;;;-2.90;99.90;;;;;;4192375;28;20269;-61
2023/12/18 01:42:20;;;;;;;262.43;40.23;;;-2.90;99.90;;;;;;4193061;28;20628;-61
2023/12/18 01:44:21;;;;;;;236.00;36.70;;;-2.90;99.90;;;;;;4192368;28;20265;-60
2023/12/18 01:46:24;;;;;;;185.87;34.90;;;-2.90;99.90;;;;;;4192140;28;20334;-61
2023/12/18 01:48:27;;;;;;;319.17;41.13;;;-3.00;99.90;;;;;;4192099;28;20327;-61
2023/12/18 01:50:28;;;;;;;232.20;39.37;;;-3.00;99.90;;;;;;4191292;28;20338;-60
2023/12/18 01:52:31;;;;;;;217.77;36.90;;;-3.00;99.90;;;;;;4192674;28;20342;-60
2023/12/18 01:54:32;;;;;;;159.27;33.13;;;-3.00;99.90;;;;;;4191346;28;20257;-60
2023/12/18 01:56:34;;;;;;;215.43;38.33;;;-3.00;99.90;;;;;;4193120;28;20307;-59
2023/12/18 01:58:36;;;;;;;318.53;47.10;;;-3.00;99.90;;;;;;4192144;28;20839;-61
2023/12/18 02:00:37;;;;;;;192.80;36.70;;;-3.00;99.90;;;;;;4192506;28;20330;-60
2023/12/18 02:02:39;;;;;;;209.13;36.13;;;-3.00;99.90;;;;;;4192311;28;20777;-60
2023/12/18 02:04:41;;;;;;;172.03;34.87;;;-3.00;99.90;;;;;;4192721;28;20265;-59
2023/12/18 02:06:44;;;;;;;185.53;35.23;;;-3.00;99.90;;;;;;4191441;28;20273;-60
2023/12/18 02:08:45;;;;;;;207.37;32.60;;;-3.00;99.90;;;;;;4192965;28;20607;-60
2023/12/18 02:10:47;;;;;;;168.47;34.27;;;-3.00;99.90;;;;;;4191757;28;20335;-60
2023/12/18 02:12:48;;;;;;;187.87;34.43;;;-3.00;99.90;;;;;;4192644;28;20273;-60
2023/12/18 02:14:49;;;;;;;245.50;41.00;;;-3.00;99.90;;;;;;4192588;28;20273;-61
2023/12/18 02:16:50;;;;;;;301.13;38.97;;;-3.00;99.90;;;;;;4191741;28;20277;-61
2023/12/18 02:18:51;;;;;;;134.97;33.73;;;-3.00;99.90;;;;;;4192888;28;20269;-59
2023/12/18 02:20:52;;;;;;;213.50;37.20;;;-3.00;99.90;;;;;;4192480;28;20745;-61
2023/12/18 02:22:54;;;;;;;172.77;34.50;;;-3.00;99.90;;;;;;4193297;28;20335;-61
2023/12/18 02:24:55;;;;;;;217.67;40.20;;;-3.00;99.90;;;;;;4191064;28;20311;-61
2023/12/18 02:26:57;;;;;;;197.70;32.37;;;-3.10;99.90;;;;;;4191783;28;20603;-61
2023/12/18 02:28:58;;;;;;;147.37;34.03;;;-3.20;99.90;;;;;;4190955;28;20347;-61
2023/12/18 02:30:59;;;;;;;251.13;36.47;;;-3.20;99.90;;;;;;4193066;28;20281;-61
2023/12/18 02:33:00;;;;;;;220.00;36.53;;;-3.20;99.90;;;;;;4191073;28;20303;-62
2023/12/18 02:35:01;;;;;;;225.77;34.43;;;-3.20;99.90;;;;;;4192382;28;20281;-60
2023/12/18 02:37:03;;;;;;;222.73;37.30;;;-3.20;99.90;;;;;;4192421;28;20331;-61
2023/12/18 02:39:04;;;;;;;326.93;40.50;;;-3.20;99.90;;;;;;4191919;28;20753;-61
2023/12/18 02:41:05;;;;;;;351.07;44.23;;;-3.20;99.90;;;;;;4192503;28;20269;-60
2023/12/18 02:43:07;;;;;;;182.70;34.00;;;-3.20;99.90;;;;;;4177264;28;20282;-61
2023/12/18 02:45:09;;;;;;;248.60;37.47;;;-3.20;99.90;;;;;;4192582;28;20668;-61
2023/12/18 02:47:10;;;;;;;236.17;35.90;;;-3.20;99.90;;;;;;4191794;28;20270;-62
2023/12/18 02:49:11;;;;;;;187.73;31.83;;;-3.20;99.90;;;;;;4192210;28;20346;-62
2023/12/18 02:51:12;;;;;;;260.20;38.53;;;-3.20;99.90;;;;;;4191928;28;20299;-62
2023/12/18 02:53:15;;;;;;;220.63;34.60;;;-3.20;99.90;;;;;;4192572;28;20278;-62
2023/12/18 02:55:16;;;;;;;184.03;31.10;;;-3.20;99.90;;;;;;4191510;28;20656;-62
2023/12/18 02:57:17;;;;;;;193.37;34.17;;;-3.30;99.90;;;;;;4176301;28;20843;-62
2023/12/18 02:59:18;;;;;;;300.07;38.57;;;-3.30;99.90;;;;;;4175466;28;20827;-61
2023/12/18 03:01:19;;;;;;;276.00;35.90;;;-3.30;99.90;;;;;;4180021;28;20253;-61
2023/12/18 03:03:20;;;;;;;213.97;32.47;;;-3.30;99.90;;;;;;4191356;28;20297;-62
2023/12/18 03:05:22;;;;;;;118.87;28.40;;;-3.30;99.90;;;;;;4192320;28;20772;-61
2023/12/18 03:07:23;;;;;;;329.03;41.07;;;-3.30;99.90;;;;;;4192316;28;20273;-61
2023/12/18 03:09:24;;;;;;;162.97;30.00;;;-3.30;99.90;;;;;;4192070;28;20289;-62
2023/12/18 03:11:25;;;;;;;115.10;28.77;;;-3.30;99.90;;;;;;4191181;28;20265;-59
2023/12/18 03:13:26;;;;;;;121.83;28.47;;;-3.30;99.90;;;;;;4191769;28;20277;-60
2023/12/18 03:15:27;;;;;;;189.93;32.70;;;-3.30;99.90;;;;;;4174365;28;20286;-61
2023/12/18 03:17:28;;;;;;;201.33;32.70;;;-3.30;99.90;;;;;;4191481;28;20315;-61
2023/12/18 03:19:30;;;;;;;140.73;31.20;;;-3.30;99.90;;;;;;4191845;28;20289;-60
2023/12/18 03:21:31;;;;;;;272.90;39.03;;;-3.30;99.90;;;;;;4191927;28;20277;-61
2023/12/18 03:23:32;;;;;;;110.80;26.90;;;-3.40;99.90;;;;;;4192418;28;20273;-61
2023/12/18 03:25:33;;;;;;;254.87;38.30;;;-3.40;99.90;;;;;;4191907;28;20303;-62
2023/12/18 03:27:35;;;;;;;189.60;30.23;;;-3.40;99.90;;;;;;4191954;28;20692;-61
2023/12/18 03:29:36;;;;;;;158.00;30.93;;;-3.40;99.90;;;;;;4191708;28;20358;-61
2023/12/18 03:31:37;;;;;;;178.47;30.60;;;-3.40;99.90;;;;;;4191080;28;20737;-61
2023/12/18 03:33:38;;;;;;;159.10;29.70;;;-3.40;99.90;;;;;;4191235;28;20277;-60
2023/12/18 03:35:39;;;;;;;260.37;38.77;;;-3.40;99.90;;;;;;4193824;28;20323;-61
2023/12/18 03:37:41;;;;;;;146.33;29.33;;;-3.40;99.90;;;;;;4194044;28;20334;-61
2023/12/18 03:39:42;;;;;;;209.90;31.97;;;-3.40;99.90;;;;;;4195492;28;20311;-61
2023/12/18 03:41:43;;;;;;;261.77;42.67;;;-3.40;99.90;;;;;;4194768;28;20733;-62
2023/12/18 03:43:44;;;;;;;137.70;29.17;;;-3.40;99.90;;;;;;4195155;28;20803;-61
2023/12/18 03:45:45;;;;;;;99.40;27.43;;;-3.40;99.90;;;;;;4195205;28;20327;-62
2023/12/18 03:47:46;;;;;;;77.13;26.23;;;-3.40;99.90;;;;;;4195292;28;20691;-61
2023/12/18 03:49:48;;;;;;;256.83;33.20;;;-3.40;99.90;;;;;;4195167;28;20761;-61
2023/12/18 03:51:49;;;;;;;63.40;24.47;;;-3.40;99.90;;;;;;4194270;28;20281;-61
2023/12/18 03:53:50;;;;;;;267.27;31.73;;;-3.30;99.90;;;;;;4194941;28;20764;-61
2023/12/18 03:55:51;;;;;;;154.47;28.77;;;-3.30;99.90;;;;;;4194149;28;20273;-62
2023/12/18 03:57:53;;;;;;;158.00;28.33;;;-3.30;99.90;;;;;;4195262;28;20266;-60
2023/12/18 03:59:55;;;;;;;149.00;29.80;;;-3.30;99.90;;;;;;4193894;28;20611;-61
2023/12/18 04:01:56;;;;;;;135.40;26.97;;;-3.40;99.90;;;;;;4193603;28;20330;-62
2023/12/18 04:03:57;;;;;;;130.53;27.80;;;-3.40;99.90;;;;;;4194321;28;20269;-62
2023/12/18 04:05:58;;;;;;;90.70;26.10;;;-3.40;99.90;;;;;;4193713;28;20273;-60
2023/12/18 04:07:59;;;;;;;163.57;31.60;;;-3.40;99.90;;;;;;4193963;28;20273;-61
2023/12/18 04:10:00;;;;;;;109.83;26.17;;;-3.30;99.90;;;;;;4194827;28;20285;-61
2023/12/18 04:12:02;;;;;;;156.00;28.63;;;-3.30;99.90;;;;;;4194428;28;20270;-61
2023/12/18 04:14:03;;;;;;;97.37;26.87;;;-3.30;99.90;;;;;;4193303;28;20277;-62
2023/12/18 04:16:04;;;;;;;91.33;28.83;;;-3.30;99.90;;;;;;4193934;28;20757;-61
2023/12/18 04:18:08;;;;;;;69.73;28.30;;;-3.30;99.90;;;;;;4193501;28;20299;-61
2023/12/18 04:20:10;;;;;;;76.23;25.97;;;-3.20;99.90;;;;;;4194502;28;20388;-61
2023/12/18 04:22:11;;;;;;;85.13;28.57;;;-3.10;99.90;;;;;;4194393;28;20791;-61
2023/12/18 04:24:12;;;;;;;81.53;28.53;;;-3.10;99.90;;;;;;4194167;28;20351;-62
2023/12/18 04:26:13;;;;;;;108.10;30.23;;;-3.00;99.90;;;;;;4194174;28;20265;-60
2023/12/18 04:28:14;;;;;;;135.10;33.30;;;-3.10;99.90;;;;;;4194030;28;20687;-62
2023/12/18 04:30:16;;;;;;;101.83;26.83;;;-3.10;99.90;;;;;;4193229;28;20285;-63
2023/12/18 04:32:17;;;;;;;81.37;30.37;;;-3.10;99.90;;;;;;4194455;28;20273;-62
2023/12/18 04:34:18;;;;;;;73.03;29.20;;;-3.20;99.90;;;;;;4193549;28;20354;-62
2023/12/18 04:36:19;;;;;;;85.33;28.43;;;-3.20;99.90;;;;;;4194018;28;20319;-62
2023/12/18 04:38:20;;;;;;;127.73;30.80;;;-3.20;99.90;;;;;;4193118;28;20281;-62
2023/12/18 04:40:22;;;;;;;99.97;29.77;;;-3.20;99.90;;;;;;4193706;28;20693;-61
2023/12/18 04:42:24;;;;;;;167.13;35.13;;;-3.20;99.90;;;;;;4193497;28;20690;-62
2023/12/18 04:44:25;;;;;;;140.47;34.13;;;-3.20;99.90;;;;;;4194230;28;20810;-61
2023/12/18 04:46:26;;;;;;;210.97;36.50;;;-3.30;99.90;;;;;;4192957;28;20672;-62
2023/12/18 04:48:27;;;;;;;88.80;30.80;;;-3.30;99.90;;;;;;4193690;28;20704;-62
2023/12/18 04:50:28;;;;;;;149.60;31.93;;;-3.30;99.90;;;;;;4194235;28;20289;-61
2023/12/18 04:52:29;;;;;;;114.83;29.00;;;-3.30;99.90;;;;;;4193004;28;20692;-61
2023/12/18 04:54:31;;;;;;;97.73;28.67;;;-3.40;99.90;;;;;;4193787;28;20265;-59
2023/12/18 04:56:32;;;;;;;98.57;28.50;;;-3.40;99.90;;;;;;4192808;28;20253;-61
2023/12/18 04:58:37;;;;;;;119.63;30.53;;;-3.40;99.90;;;;;;4191325;28;20270;-59
2023/12/18 05:00:38;;;;;;;80.53;26.67;;;-3.40;99.90;;;;;;4192893;28;20362;-60
2023/12/18 05:02:39;;;;;;;167.97;33.40;;;-3.40;99.90;;;;;;4192944;28;20327;-60
2023/12/18 05:04:40;;;;;;;96.40;30.03;;;-3.40;99.90;;;;;;4174948;28;20312;-59
2023/12/18 05:06:41;;;;;;;131.17;29.43;;;-3.50;99.90;;;;;;4194336;28;20269;-61
2023/12/18 05:08:42;;;;;;;207.27;33.27;;;-3.50;99.90;;;;;;4192243;28;20688;-61
2023/12/18 05:10:45;;;;;;;175.97;32.17;;;-3.50;99.90;;;;;;4177297;28;20345;-63
2023/12/18 05:12:46;;;;;;;198.73;32.10;;;-3.60;99.90;;;;;;4176819;28;20388;-59
2023/12/18 05:14:47;;;;;;;267.23;35.93;;;-3.60;99.90;;;;;;4190660;28;20266;-60
2023/12/18 05:16:48;;;;;;;273.97;36.80;;;-3.60;99.90;;;;;;4193427;28;20285;-60
2023/12/18 05:18:50;;;;;;;241.40;33.23;;;-3.60;99.90;;;;;;4193242;28;20262;-60
2023/12/18 05:20:53;;;;;;;221.23;33.37;;;-3.70;99.90;;;;;;4192529;28;20307;-60
2023/12/18 05:22:54;;;;;;;97.03;28.20;;;-3.70;99.90;;;;;;4192552;28;20257;-59
2023/12/18 05:24:55;;;;;;;103.30;27.50;;;-3.70;99.90;;;;;;4193594;28;20299;-59
2023/12/18 05:26:56;;;;;;;81.73;29.70;;;-3.80;99.90;;;;;;4192045;28;20327;-59
2023/12/18 05:28:58;;;;;;;111.30;29.33;;;-3.80;99.90;;;;;;4175653;28;20348;-60
2023/12/18 05:31:00;;;;;;;104.23;25.27;;;-3.80;99.90;;;;;;4190668;28;20657;-61
2023/12/18 05:33:02;;;;;;;90.00;25.37;;;-3.70;99.90;;;;;;4182211;28;20286;-61
2023/12/18 05:35:03;;;;;;;72.17;25.10;;;-3.70;99.90;;;;;;4176909;28;20414;-61
2023/12/18 05:37:04;;;;;;;96.20;25.37;;;-3.70;99.90;;;;;;4193482;28;20312;-61
2023/12/18 05:39:05;;;;;;;149.93;27.87;;;-3.70;99.90;;;;;;4192168;28;20380;-62
2023/12/18 05:41:06;;;;;;;72.63;25.23;;;-3.70;99.90;;;;;;4193125;28;20278;-61
2023/12/18 05:43:08;;;;;;;68.00;27.27;;;-3.70;99.90;;;;;;4192950;28;20644;-62
2023/12/18 05:45:09;;;;;;;101.83;29.77;;;-3.70;99.90;;;;;;4174601;28;20323;-60
2023/12/18 05:47:10;;;;;;;67.93;25.60;;;-3.70;99.90;;;;;;4193253;28;20637;-61
2023/12/18 05:49:11;;;;;;;63.10;25.70;;;-3.70;99.90;;;;;;4193204;28;20783;-62
2023/12/18 05:51:20;;;;;;;63.83;24.97;;;-3.60;99.90;;;;;;4193030;28;20650;-61
2023/12/18 05:53:21;;;;;;;60.77;25.83;;;-3.60;99.90;;;;;;4193150;28;20330;-59
2023/12/18 05:55:22;;;;;;;56.47;24.97;;;-3.60;99.90;;;;;;4192768;28;20830;-61
2023/12/18 05:57:24;;;;;;;64.80;28.50;;;-3.60;99.90;;;;;;4191966;28;20729;-60
2023/12/18 05:59:25;;;;;;;54.97;25.83;;;-3.60;99.90;;;;;;4174247;28;20328;-60
2023/12/18 06:01:26;;;;;;;58.97;27.33;;;-3.60;99.90;;;;;;4191587;28;20347;-60
2023/12/18 06:03:27;;;;;;;60.67;26.73;;;-3.50;99.90;;;;;;4192314;28;20627;-61
2023/12/18 06:05:28;;;;;;;52.47;24.17;;;-3.50;99.90;;;;;;4189871;28;20619;-62
2023/12/18 06:07:30;;;;;;;48.37;22.33;;;-3.50;99.90;;;;;;4191474;28;20422;-61
2023/12/18 06:09:31;;;;;;;52.20;23.40;;;-3.50;99.90;;;;;;4189074;28;20322;-60
2023/12/18 06:11:33;;;;;;;46.67;22.20;;;-3.50;99.90;;;;;;4192135;28;20343;-60
2023/12/18 06:13:34;;;;;;;46.10;20.63;;;-3.50;99.90;;;;;;4190799;28;20277;-61
2023/12/18 06:15:35;;;;;;;44.27;21.30;;;-3.50;99.90;;;;;;4192420;28;20649;-61
2023/12/18 06:17:36;;;;;;;52.40;21.27;;;-3.50;99.90;;;;;;4191653;28;20271;-58
2023/12/18 06:19:38;;;;;;;54.43;22.90;;;-3.50;99.90;;;;;;4190402;28;20343;-60
2023/12/18 06:21:43;;;;;;;58.87;23.93;;;-3.50;99.90;;;;;;4191409;28;20338;-59
2023/12/18 06:23:44;;;;;;;49.50;21.83;;;-3.50;99.90;;;;;;4191686;28;20335;-55
2023/12/18 06:25:45;;;;;;;36.10;17.37;;;-3.40;99.90;;;;;;4192749;28;20810;-59
2023/12/18 06:27:46;;;;;;;37.87;17.43;;;-3.50;99.90;;;;;;4192409;28;20258;-60
2023/12/18 06:29:47;;;;;;;41.37;18.23;;;-3.50;99.90;;;;;;4192737;28;20277;-61
2023/12/18 06:31:48;;;;;;;44.57;18.37;;;-3.40;99.90;;;;;;4192103;28;20319;-61
2023/12/18 06:33:50;;;;;;;39.10;18.43;;;-3.40;99.90;;;;;;4192843;28;20668;-61
2023/12/18 06:35:51;;;;;;;38.50;17.33;;;-3.40;99.90;;;;;;4191843;28;20347;-61
2023/12/18 06:37:52;;;;;;;40.23;17.90;;;-3.30;99.90;;;;;;4192752;28;20647;-60
2023/12/18 06:39:53;;;;;;;41.27;19.40;;;-3.40;99.90;;;;;;4191397;28;20761;-60
2023/12/18 06:41:55;;;;;;;39.90;18.33;;;-3.40;99.90;;;;;;4192589;28;20281;-59
2023/12/18 06:43:56;;;;;;;42.03;20.13;;;-3.40;99.90;;;;;;4191622;28;20830;-60
2023/12/18 06:45:59;;;;;;;40.27;19.13;;;-3.40;99.90;;;;;;4192817;28;20771;-57
2023/12/18 06:48:00;;;;;;;43.93;19.47;;;-3.40;99.90;;;;;;4191924;28;20269;-59
2023/12/18 06:50:01;;;;;;;43.30;19.37;;;-3.40;99.90;;;;;;4191404;28;20304;-59
2023/12/18 06:52:03;;;;;;;47.43;19.67;;;-3.40;99.90;;;;;;4191851;28;20270;-57
2023/12/18 06:54:04;;;;;;;41.13;19.23;;;-3.40;99.90;;;;;;4192384;28;20347;-59
2023/12/18 06:56:05;;;;;;;47.30;20.63;;;-3.40;99.90;;;;;;4192507;28;20653;-60
2023/12/18 06:58:07;;;;;;;47.00;20.43;;;-3.40;99.90;;;;;;4191217;28;20281;-59
2023/12/18 07:00:09;;;;;;;44.33;20.00;;;-3.40;99.90;;;;;;4191980;28;20335;-57
2023/12/18 07:02:11;;;;;;;42.97;18.30;;;-3.40;99.90;;;;;;4192163;28;20269;-60
2023/12/18 07:04:12;;;;;;;44.80;19.77;;;-3.40;99.90;;;;;;4192107;28;20289;-60
2023/12/18 07:06:16;;;;;;;40.43;19.60;;;-3.40;99.90;;;;;;4192396;28;20285;-59
2023/12/18 07:08:18;;;;;;;43.03;18.93;;;-3.40;99.90;;;;;;4192061;28;20741;-59
2023/12/18 07:10:19;;;;;;;44.30;20.83;;;-3.40;99.90;;;;;;4191678;28;20339;-60
2023/12/18 07:12:20;;;;;;;45.70;21.47;;;-3.40;99.90;;;;;;4195019;28;20262;-60
2023/12/18 07:14:21;;;;;;;42.90;18.87;;;-3.40;99.90;;;;;;4194038;28;20273;-60
2023/12/18 07:16:23;;;;;;;42.30;20.00;;;-3.40;99.90;;;;;;4195626;28;20269;-60
2023/12/18 07:18:24;;;;;;;46.07;19.67;;;-3.40;99.90;;;;;;4194849;28;20662;-61
2023/12/18 07:20:25;;;;;;;44.30;20.20;;;-3.40;99.90;;;;;;4177354;28;20281;-55
2023/12/18 07:22:27;;;;;;;42.70;19.90;;;-3.30;99.90;;;;;;4194057;28;20289;-56
2023/12/18 07:24:28;;;;;;;46.37;21.53;;;-3.30;99.90;;;;;;4195445;28;20281;-60
2023/12/18 07:26:30;;;;;;;49.80;19.23;;;-3.20;99.90;;;;;;4194542;28;20327;-60
2023/12/18 07:28:31;;;;;;;51.17;21.53;;;-3.20;99.90;;;;;;4194613;28;20334;-59
2023/12/18 07:30:32;;;;;;;56.03;21.27;;;-3.20;99.90;;;;;;4194553;28;20301;-60
2023/12/18 07:32:33;;;;;;;55.60;22.07;;;-3.30;99.90;;;;;;4194928;28;20273;-60
2023/12/18 07:34:34;;;;;;;54.33;22.70;;;-3.30;99.90;;;;;;4195204;28;20749;-60
2023/12/18 07:36:39;;;;;;;51.70;22.40;;;-3.20;99.90;;;;;;4195293;28;20311;-60
2023/12/18 07:38:40;;;;;;;43.93;20.27;;;-3.20;99.90;;;;;;4194967;28;20368;-59
2023/12/18 07:40:41;;;;;;;44.83;18.63;;;-3.20;99.90;;;;;;4193900;28;20258;-61
2023/12/18 07:42:42;;;;;;;44.33;19.63;;;-3.20;99.90;;;;;;4195117;28;20322;-60
2023/12/18 07:44:43;;;;;;;44.50;18.57;;;-3.20;99.90;;;;;;4194548;28;20597;-59
2023/12/18 07:46:46;;;;;;;57.30;19.63;;;-3.30;99.90;;;;;;4194358;28;20261;-59
2023/12/18 07:48:48;;;;;;;54.83;21.33;;;-3.20;99.90;;;;;;4193929;28;20315;-59
2023/12/18 07:50:49;;;;;;;48.03;19.73;;;-3.20;99.90;;;;;;4195130;28;20359;-60
2023/12/18 07:52:50;;;;;;;51.60;21.07;;;-3.20;99.90;;;;;;4194881;28;20253;-60
2023/12/18 07:54:51;;;;;;;49.40;20.60;;;-3.20;99.90;;;;;;4194968;28;20338;-59
2023/12/18 07:56:52;;;;;;;53.57;21.07;;;-3.20;99.90;;;;;;4194764;28;20652;-59
2023/12/18 07:58:54;;;;;;;49.50;20.30;;;-3.20;99.90;;;;;;4193935;28;20280;-59
2023/12/18 08:00:55;;;;;;;52.73;22.03;;;-3.20;99.90;;;;;;4194072;28;20779;-58
2023/12/18 08:02:56;;;;;;;63.10;24.17;;;-3.20;99.90;;;;;;4194432;28;20308;-60
2023/12/18 08:04:57;;;;;;;63.27;26.77;;;-3.10;99.90;;;;;;4194519;28;20326;-59
2023/12/18 08:06:58;;;;;;;63.13;26.20;;;-3.10;99.90;;;;;;4194620;28;20291;-59
2023/12/18 08:09:00;;;;;;;61.03;25.27;;;-3.10;99.90;;;;;;4194918;28;20667;-58
2023/12/18 08:11:01;;;;;;;61.60;26.07;;;-3.00;99.90;;;;;;4193532;28;20308;-55
2023/12/18 08:13:02;;;;;;;55.40;24.50;;;-2.90;99.90;;;;;;4194330;28;20818;-56
2023/12/18 08:15:04;;;;;;;49.13;21.97;;;-2.80;99.90;;;;;;4194183;28;20269;-57
2023/12/18 08:17:05;;;;;;;46.47;20.43;;;-2.80;99.90;;;;;;4194937;28;20254;-59
2023/12/18 08:19:08;;;;;;;53.10;20.40;;;-2.80;99.90;;;;;;4193232;28;20319;-59
2023/12/18 08:21:13;;;;;;;51.23;20.87;;;-2.80;99.90;;;;;;4193793;28;20335;-59
2023/12/18 08:23:14;;;;;;;54.23;21.50;;;-2.70;99.90;;;;;;4193871;28;20271;-59
2023/12/18 08:25:15;;;;;;;46.17;20.10;;;-2.70;99.90;;;;;;4193952;28;20668;-60
2023/12/18 08:27:17;;;;;;;46.70;20.33;;;-2.70;99.90;;;;;;4194249;28;20660;-60
2023/12/18 08:29:18;;;;;;;50.07;19.60;;;-2.60;99.90;;;;;;4193870;28;20273;-59
2023/12/18 08:31:19;;;;;;;47.13;20.23;;;-2.60;99.90;;;;;;4193685;28;20301;-59
2023/12/18 08:33:20;;;;;;;57.93;22.90;;;-2.60;99.90;;;;;;4194035;28;20269;-60
2023/12/18 08:35:22;;;;;;;43.60;19.50;;;-2.60;99.90;;;;;;4194103;28;20323;-60
2023/12/18 08:37:23;;;;;;;46.27;20.07;;;-2.60;99.90;;;;;;4194384;28;20265;-60
2023/12/18 08:39:24;;;;;;;46.80;20.20;;;-2.60;99.90;;;;;;4194325;28;20652;-61
2023/12/18 08:41:25;;;;;;;41.90;18.37;;;-2.70;99.90;;;;;;4193258;28;20323;-60
2023/12/18 08:43:26;;;;;;;43.63;17.93;;;-2.70;99.90;;;;;;4194658;28;20261;-58
2023/12/18 08:45:27;;;;;;;38.27;17.83;;;-2.60;99.90;;;;;;4193374;28;20368;-61
2023/12/18 08:47:29;;;;;;;43.73;18.27;;;-2.70;99.90;;;;;;4193959;28;20637;-58
2023/12/18 08:49:30;;;;;;;48.97;19.57;;;-2.70;99.90;;;;;;4193088;28;20674;-59
2023/12/18 08:51:31;;;;;;;44.93;18.40;;;-2.70;99.90;;;;;;4194115;28;20335;-61
2023/12/18 08:53:33;;;;;;;41.40;17.13;;;-2.70;99.90;;;;;;4193482;28;20319;-60
2023/12/18 08:55:38;;;;;;;48.53;19.13;;;-2.70;99.90;;;;;;4193018;28;20285;-60
2023/12/18 08:57:40;;;;;;;35.57;15.40;;;-2.70;99.90;;;;;;4193573;28;20319;-60
2023/12/18 08:59:41;;;;;;;40.97;17.73;;;-2.70;99.90;;;;;;4193294;28;20286;-60
2023/12/18 09:01:42;;;;;;;41.70;18.00;;;-2.70;99.90;;;;;;4193634;28;20319;-60
2023/12/18 09:03:43;;;;;;;41.73;18.43;;;-2.60;99.90;;;;;;4193462;28;20704;-59
2023/12/18 09:05:44;;;;;;;40.67;18.30;;;-2.50;99.90;;;;;;4192755;28;20739;-61
2023/12/18 09:07:45;;;;;;;36.47;18.00;;;-2.40;99.90;;;;;;4193095;28;20826;-59
2023/12/18 09:09:46;;;;;;;43.40;19.23;;;-2.40;99.90;;;;;;4193580;28;20313;-60
2023/12/18 09:11:47;;;;;;;42.93;19.37;;;-2.40;99.90;;;;;;4193019;28;20335;-61
2023/12/18 09:13:49;;;;;;;41.50;19.20;;;-2.40;99.90;;;;;;4192649;28;20285;-60
2023/12/18 09:15:50;;;;;;;33.17;16.10;;;-2.40;99.90;;;;;;4192214;28;20346;-58
2023/12/18 09:17:51;;;;;;;40.17;16.23;;;-2.30;99.90;;;;;;4193718;28;20360;-61
2023/12/18 09:19:52;;;;;;;32.80;14.70;;;-2.40;99.90;;;;;;4192483;28;20627;-60
2023/12/18 09:21:54;;;;;;;42.33;14.73;;;-2.30;99.90;;;;;;4193021;28;20277;-58
2023/12/18 09:23:55;;;;;;;37.97;16.10;;;-2.40;99.90;;;;;;4192745;28;20733;-60
2023/12/18 09:25:56;;;;;;;32.13;14.90;;;-2.40;99.90;;;;;;4193462;28;20402;-60
2023/12/18 09:27:57;;;;;;;35.97;15.17;;;-2.40;99.90;;;;;;4192635;28;20269;-60
2023/12/18 09:29:58;;;;;;;37.00;15.90;;;-2.30;99.90;;;;;;4192076;28;20346;-59
2023/12/18 09:31:59;;;;;;;36.30;15.97;;;-2.30;99.90;;;;;;4193046;28;20355;-58
2023/12/18 09:34:01;;;;;;;37.23;15.60;;;-2.20;99.90;;;;;;4192137;28;20749;-60
2023/12/18 09:36:05;;;;;;;37.37;16.13;;;-2.10;99.90;;;;;;4193073;28;20281;-59
2023/12/18 09:38:06;;;;;;;35.13;15.60;;;-2.00;99.90;;;;;;4193047;28;20261;-60
2023/12/18 09:40:08;;;;;;;40.63;17.17;;;-2.00;99.90;;;;;;4193210;28;20273;-59
2023/12/18 09:42:10;;;;;;;41.87;16.77;;;-2.00;99.90;;;;;;4192854;28;20277;-59
2023/12/18 09:44:11;;;;;;;33.93;15.30;;;-2.00;99.90;;;;;;4192668;28;20277;-59
2023/12/18 09:46:14;;;;;;;35.43;16.20;;;-2.00;99.90;;;;;;4192587;28;20273;-59
2023/12/18 09:48:16;;;;;;;36.13;16.10;;;-1.90;99.90;;;;;;4174754;28;20286;-59
2023/12/18 09:50:18;;;;;;;34.97;15.37;;;-1.90;99.90;;;;;;4191843;28;20289;-60
2023/12/18 09:52:22;;;;;;;40.90;17.67;;;-1.90;99.90;;;;;;4193257;28;20265;-57
2023/12/18 09:54:25;;;;;;;33.20;16.70;;;-1.90;99.90;;;;;;4191720;28;20281;-60
2023/12/18 09:56:28;;;;;;;35.67;14.73;;;-1.90;99.90;;;;;;4193025;28;20323;-60
2023/12/18 09:58:29;;;;;;;35.30;14.23;;;-1.90;99.90;;;;;;4192570;28;20362;-60
2023/12/18 10:00:31;;;;;;;32.20;15.07;;;-1.90;99.90;;;;;;4192797;28;20261;-60
2023/12/18 10:02:34;;;;;;;32.50;13.90;;;-1.90;99.90;;;;;;4192436;28;20277;-62
2023/12/18 10:04:35;;;;;;;34.40;15.23;;;-1.90;99.90;;;;;;4192245;28;20350;-59
2023/12/18 10:06:36;;;;;;;37.07;15.20;;;-1.90;99.90;;;;;;4192968;28;20342;-59
2023/12/18 10:08:38;;;;;;;46.10;17.00;;;-1.90;99.90;;;;;;4192454;28;20262;-59
2023/12/18 10:10:39;;;;;;;39.33;16.93;;;-1.80;99.90;;;;;;4192019;28;20319;-59
2023/12/18 10:12:41;;;;;;;36.20;16.80;;;-1.80;99.90;;;;;;4173694;28;20269;-60